createdAt,value
2018-09-16T00:02:09.748Z,93.22
2018-09-16T00:04:36.908Z,93.21
2018-09-16T00:07:04.142Z,93.24
2018-09-16T00:09:31.372Z,93.36
2018-09-16T00:11:58.508Z,92.86
2018-09-16T00:14:25.768Z,94.50
2018-09-16T00:16:52.968Z,93.52
2018-09-16T00:19:20.117Z,92.76
2018-09-16T00:21:47.365Z,92.98
2018-09-16T00:24:14.529Z,92.03
2018-09-16T00:26:41.704Z,92.46
2018-09-16T00:29:09.153Z,93.07
2018-09-16T00:31:36.394Z,92.93
2018-09-16T00:34:03.627Z,93.30
2018-09-16T00:36:30.835Z,93.81
2018-09-16T00:38:57.987Z,93.68
2018-09-16T00:41:25.155Z,94.81
2018-09-16T00:43:52.374Z,94.67
2018-09-16T00:46:19.525Z,94.49
2018-09-16T00:48:46.709Z,94.46
2018-09-16T00:51:13.948Z,94.36
2018-09-16T00:53:41.112Z,94.52
2018-09-16T00:56:08.409Z,94.73
2018-09-16T00:58:35.648Z,94.56
2018-09-16T01:01:02.969Z,95.10
2018-09-16T01:03:30.143Z,94.94
2018-09-16T01:06:02.905Z,95.32
2018-09-16T01:08:30.058Z,95.06
2018-09-16T01:10:57.892Z,95.61
2018-09-16T01:13:25.159Z,95.47
2018-09-16T01:15:52.310Z,95.00
2018-09-16T01:18:19.502Z,94.93
2018-09-16T01:20:46.766Z,94.83
2018-09-16T01:23:14.024Z,95.74
2018-09-16T01:25:41.272Z,95.38
2018-09-16T01:28:08.513Z,95.74
2018-09-16T01:30:35.738Z,95.57
2018-09-16T01:33:02.932Z,95.66
2018-09-16T01:35:30.157Z,96.55
2018-09-16T01:38:03.026Z,96.13
2018-09-16T01:40:30.286Z,96.70
2018-09-16T01:42:57.476Z,96.50
2018-09-16T01:45:24.636Z,97.16
2018-09-16T01:47:51.914Z,97.06
2018-09-16T01:50:19.181Z,97.10
2018-09-16T01:52:46.384Z,97.72
2018-09-16T01:55:13.597Z,97.68
2018-09-16T01:57:40.771Z,97.33
2018-09-16T02:00:08.028Z,97.17
2018-09-16T02:02:35.289Z,97.23
2018-09-16T02:05:02.448Z,97.03
2018-09-16T02:07:29.594Z,96.52
2018-09-16T02:09:56.821Z,96.91
2018-09-16T02:12:23.973Z,97.10
2018-09-16T02:14:51.213Z,97.15
2018-09-16T02:17:18.447Z,97.73
2018-09-16T02:19:45.700Z,97.92
2018-09-16T02:22:12.948Z,98.60
2018-09-16T02:24:40.195Z,98.60
2018-09-16T02:27:07.385Z,98.15
2018-09-16T02:29:34.576Z,99.03
2018-09-16T02:32:01.819Z,99.22
2018-09-16T02:34:31.772Z,100.00
2018-09-16T02:36:59.150Z,99.52
2018-09-16T02:39:39.236Z,100.00
2018-09-16T02:42:06.538Z,100.00
2018-09-16T02:44:33.697Z,100.00
2018-09-16T02:47:00.926Z,100.00
2018-09-16T02:49:28.127Z,99.90
2018-09-16T02:52:05.785Z,99.30
2018-09-16T02:54:37.284Z,98.62
2018-09-16T02:57:04.594Z,97.83
2018-09-16T02:59:31.802Z,97.95
2018-09-16T03:01:59.100Z,98.52
2018-09-16T03:04:26.362Z,98.47
2018-09-16T03:06:53.528Z,98.43
2018-09-16T03:09:20.703Z,98.50
2018-09-16T03:11:48.033Z,97.91
2018-09-16T03:14:15.157Z,97.65
2018-09-16T03:16:42.401Z,98.01
2018-09-16T03:19:09.669Z,98.02
2018-09-16T03:21:36.868Z,98.43
2018-09-16T03:24:04.056Z,98.55
2018-09-16T03:26:31.309Z,97.90
2018-09-16T03:28:58.529Z,97.51
2018-09-16T03:31:25.722Z,96.57
2018-09-16T03:33:52.937Z,96.21
2018-09-16T03:36:20.157Z,96.29
2018-09-16T03:38:47.400Z,96.61
2018-09-16T03:41:14.697Z,97.05
2018-09-16T03:43:41.888Z,97.23
2018-09-16T03:46:09.087Z,96.89
2018-09-16T03:48:36.371Z,97.20
2018-09-16T03:51:03.566Z,97.55
2018-09-16T03:53:30.809Z,96.24
2018-09-16T03:55:58.047Z,95.39
2018-09-16T03:58:25.302Z,95.47
2018-09-16T04:00:52.509Z,95.48
2018-09-16T04:03:19.741Z,97.22
2018-09-16T04:05:46.981Z,97.11
2018-09-16T04:08:14.235Z,97.56
2018-09-16T04:10:41.461Z,98.00
2018-09-16T04:13:08.692Z,98.10
2018-09-16T04:15:35.874Z,97.58
2018-09-16T04:18:03.131Z,97.00
2018-09-16T04:20:30.318Z,97.76
2018-09-16T04:22:57.518Z,98.80
2018-09-16T04:25:24.757Z,99.22
2018-09-16T04:27:51.949Z,99.48
2018-09-16T04:30:19.154Z,99.71
2018-09-16T04:32:46.448Z,99.91
2018-09-16T04:35:13.626Z,100.00
2018-09-16T04:37:40.809Z,99.87
2018-09-16T04:40:08.427Z,100.00
2018-09-16T04:42:35.630Z,100.00
2018-09-16T04:45:02.850Z,100.00
2018-09-16T04:47:30.112Z,100.00
2018-09-16T04:49:57.332Z,100.00
2018-09-16T04:52:24.535Z,100.00
2018-09-16T04:54:51.767Z,100.00
2018-09-16T04:57:19.011Z,100.00
2018-09-16T04:59:46.344Z,100.00
2018-09-16T05:02:13.626Z,100.00
2018-09-16T05:04:40.929Z,100.00
2018-09-16T05:07:08.770Z,100.00
2018-09-16T05:09:36.301Z,100.00
2018-09-16T05:12:03.822Z,100.00
2018-09-16T05:14:31.387Z,100.00
2018-09-16T05:16:59.023Z,100.00
2018-09-16T05:19:26.522Z,100.00
2018-09-16T05:21:53.811Z,99.93
2018-09-16T05:24:24.921Z,99.88
2018-09-16T05:26:52.129Z,99.95
2018-09-16T05:29:19.674Z,100.00
2018-09-16T05:31:46.933Z,100.00
2018-09-16T05:34:14.622Z,100.00
2018-09-16T05:36:42.344Z,100.00
2018-09-16T05:39:10.589Z,100.00
2018-09-16T05:41:37.817Z,100.00
2018-09-16T05:44:06.033Z,100.00
2018-09-16T05:46:33.433Z,100.00
2018-09-16T05:49:00.650Z,100.00
2018-09-16T05:51:28.577Z,100.00
2018-09-16T05:53:55.856Z,100.00
2018-09-16T05:56:23.064Z,99.58
2018-09-16T05:58:50.277Z,98.06
2018-09-16T06:01:17.553Z,96.73
2018-09-16T06:03:46.372Z,96.00
2018-09-16T06:06:13.734Z,95.41
2018-09-16T06:08:41.139Z,94.54
2018-09-16T06:11:08.513Z,93.76
2018-09-16T06:13:35.753Z,92.45
2018-09-16T06:16:03.045Z,92.03
2018-09-16T06:18:30.331Z,92.03
2018-09-16T06:20:57.574Z,93.06
2018-09-16T06:23:24.869Z,91.15
2018-09-16T06:25:52.381Z,90.28
2018-09-16T06:28:19.623Z,90.16
2018-09-16T06:30:46.888Z,88.76
2018-09-16T06:33:14.102Z,89.06
2018-09-16T06:35:41.381Z,87.45
2018-09-16T06:38:08.590Z,87.54
2018-09-16T06:40:37.732Z,86.84
2018-09-16T06:43:04.967Z,85.49
2018-09-16T06:45:32.574Z,84.06
2018-09-16T06:47:59.815Z,84.14
2018-09-16T06:50:26.964Z,83.33
2018-09-16T06:52:54.225Z,83.05
2018-09-16T06:55:21.382Z,81.92
2018-09-16T06:57:48.674Z,81.61
2018-09-16T07:00:19.892Z,81.43
2018-09-16T07:02:47.077Z,81.24
2018-09-16T07:05:14.245Z,79.07
2018-09-16T07:07:41.521Z,78.90
2018-09-16T07:10:08.757Z,77.08
2018-09-16T07:12:35.928Z,77.50
2018-09-16T07:15:03.246Z,75.88
2018-09-16T07:17:30.445Z,74.58
2018-09-16T07:19:57.642Z,74.04
2018-09-16T07:22:24.884Z,75.51
2018-09-16T07:24:52.178Z,75.36
2018-09-16T07:27:19.365Z,72.44
2018-09-16T07:29:46.584Z,71.08
2018-09-16T07:32:13.836Z,68.94
2018-09-16T07:34:41.081Z,70.08
2018-09-16T07:37:08.316Z,67.25
2018-09-16T07:39:35.485Z,66.49
2018-09-16T07:42:02.732Z,65.69
2018-09-16T07:44:29.954Z,68.32
2018-09-16T07:46:57.257Z,65.51
2018-09-16T07:49:24.409Z,67.46
2018-09-16T07:51:51.641Z,63.56
2018-09-16T07:54:18.830Z,65.94
2018-09-16T07:56:46.017Z,63.47
2018-09-16T07:59:13.229Z,63.33
2018-09-16T08:01:40.440Z,62.67
2018-09-16T08:04:07.616Z,61.22
2018-09-16T08:06:34.879Z,61.47
2018-09-16T08:09:02.077Z,61.40
2018-09-16T08:11:29.311Z,59.48
2018-09-16T08:13:56.576Z,59.89
2018-09-16T08:16:23.741Z,59.16
2018-09-16T08:18:50.892Z,59.50
2018-09-16T08:21:18.210Z,58.22
2018-09-16T08:23:45.397Z,57.30
2018-09-16T08:26:12.581Z,56.58
2018-09-16T08:28:39.811Z,58.23
2018-09-16T08:31:07.050Z,56.79
2018-09-16T08:33:34.274Z,56.02
2018-09-16T08:36:01.566Z,55.87
2018-09-16T08:38:28.811Z,55.84
2018-09-16T08:40:55.989Z,54.23
2018-09-16T08:43:23.256Z,53.93
2018-09-16T08:45:50.531Z,53.26
2018-09-16T08:48:17.773Z,50.35
2018-09-16T08:50:45.112Z,52.54
2018-09-16T08:53:12.345Z,49.95
2018-09-16T08:55:39.597Z,51.46
2018-09-16T08:58:06.906Z,51.67
2018-09-16T09:00:34.541Z,49.92
2018-09-16T09:03:01.809Z,50.60
2018-09-16T09:05:29.102Z,49.60
2018-09-16T09:07:56.359Z,48.50
2018-09-16T09:10:24.639Z,48.68
2018-09-16T09:12:51.984Z,48.19
2018-09-16T09:15:19.197Z,46.89
2018-09-16T09:17:46.433Z,46.61
2018-09-16T09:20:13.758Z,48.44
2018-09-16T09:22:41.027Z,45.59
2018-09-16T09:25:08.251Z,47.58
2018-09-16T09:27:35.515Z,46.61
2018-09-16T09:30:02.752Z,45.53
2018-09-16T09:32:29.973Z,41.88
2018-09-16T09:34:57.243Z,45.53
2018-09-16T09:37:24.470Z,42.78
2018-09-16T09:39:51.700Z,41.64
2018-09-16T09:42:18.996Z,43.37
2018-09-16T09:44:46.217Z,42.57
2018-09-16T09:47:13.439Z,43.58
2018-09-16T09:49:40.750Z,43.25
2018-09-16T09:52:08.016Z,40.00
2018-09-16T09:54:35.237Z,39.65
2018-09-16T09:57:02.584Z,41.29
2018-09-16T09:59:30.038Z,39.55
2018-09-16T10:01:57.230Z,39.96
2018-09-16T10:04:24.555Z,39.91
2018-09-16T10:06:53.882Z,42.70
2018-09-16T10:09:21.099Z,42.84
2018-09-16T10:11:48.447Z,42.81
2018-09-16T10:14:15.801Z,42.15
2018-09-16T10:16:43.007Z,39.25
2018-09-16T10:19:10.289Z,39.35
2018-09-16T10:21:37.542Z,38.40
2018-09-16T10:24:04.824Z,42.07
2018-09-16T10:26:32.180Z,40.67
2018-09-16T10:28:59.415Z,42.05
2018-09-16T10:31:27.850Z,44.92
2018-09-16T10:33:55.570Z,42.44
2018-09-16T10:36:22.802Z,41.33
2018-09-16T10:38:50.069Z,41.19
2018-09-16T10:41:17.369Z,41.90
2018-09-16T10:43:44.574Z,40.53
2018-09-16T10:46:11.774Z,38.89
2018-09-16T10:48:39.026Z,39.92
2018-09-16T10:51:10.155Z,38.72
2018-09-16T10:53:37.360Z,37.73
2018-09-16T10:56:04.666Z,38.44
2018-09-16T10:58:31.888Z,40.82
2018-09-16T11:00:59.111Z,40.15
2018-09-16T11:03:26.362Z,41.57
2018-09-16T11:05:53.570Z,40.40
2018-09-16T11:08:20.798Z,39.97
2018-09-16T11:10:48.041Z,40.94
2018-09-16T11:13:15.281Z,40.38
2018-09-16T11:15:42.624Z,40.66
2018-09-16T11:18:09.858Z,40.94
2018-09-16T11:20:37.074Z,41.04
2018-09-16T11:23:04.405Z,40.30
2018-09-16T11:25:31.653Z,36.51
2018-09-16T11:27:58.854Z,36.79
2018-09-16T11:30:26.070Z,34.45
2018-09-16T11:32:53.374Z,35.85
2018-09-16T11:35:20.580Z,36.67
2018-09-16T11:37:47.733Z,37.93
2018-09-16T11:40:14.941Z,35.59
2018-09-16T11:42:42.113Z,35.64
2018-09-16T11:45:09.309Z,33.16
2018-09-16T11:47:36.531Z,33.35
2018-09-16T11:50:03.743Z,34.29
2018-09-16T11:52:30.949Z,33.81
2018-09-16T11:54:58.230Z,35.11
2018-09-16T11:57:25.393Z,35.24
2018-09-16T11:59:52.566Z,35.35
2018-09-16T12:02:19.895Z,36.06
2018-09-16T12:04:47.096Z,38.77
2018-09-16T12:07:14.270Z,37.79
2018-09-16T12:09:41.473Z,35.33
2018-09-16T12:12:08.695Z,37.00
2018-09-16T12:14:35.882Z,35.76
2018-09-16T12:17:03.178Z,37.81
2018-09-16T12:19:30.346Z,36.68
2018-09-16T12:21:57.525Z,37.09
2018-09-16T12:24:24.749Z,38.17
2018-09-16T12:26:51.917Z,37.21
2018-09-16T12:29:19.110Z,39.24
2018-09-16T12:31:46.345Z,38.84
2018-09-16T12:34:13.510Z,38.76
2018-09-16T12:36:40.678Z,38.15
2018-09-16T12:39:10.329Z,39.22
2018-09-16T12:41:37.562Z,37.70
2018-09-16T12:44:04.870Z,37.62
2018-09-16T12:46:32.109Z,40.85
2018-09-16T12:48:59.269Z,36.54
2018-09-16T12:51:26.442Z,38.24
2018-09-16T12:53:53.681Z,37.97
2018-09-16T12:56:20.870Z,38.46
2018-09-16T12:58:48.049Z,39.09
2018-09-16T13:01:15.350Z,39.29
2018-09-16T13:03:42.505Z,37.78
2018-09-16T13:06:09.677Z,35.33
2018-09-16T13:08:36.897Z,38.58
2018-09-16T13:11:04.164Z,37.79
2018-09-16T13:13:31.367Z,37.25
2018-09-16T13:15:58.566Z,37.64
2018-09-16T13:18:25.821Z,37.87
2018-09-16T13:20:52.985Z,38.92
2018-09-16T13:23:20.228Z,40.61
2018-09-16T13:25:47.389Z,37.53
2018-09-16T13:28:14.562Z,37.68
2018-09-16T13:30:41.784Z,38.04
2018-09-16T13:33:08.975Z,37.47
2018-09-16T13:35:36.170Z,38.81
2018-09-16T13:38:03.408Z,37.81
2018-09-16T13:40:30.585Z,36.71
2018-09-16T13:42:57.786Z,36.01
2018-09-16T13:45:25.048Z,37.06
2018-09-16T13:47:52.257Z,36.68
2018-09-16T13:50:19.453Z,35.40
2018-09-16T13:52:46.749Z,37.63
2018-09-16T13:55:13.943Z,37.29
2018-09-16T13:57:41.124Z,37.11
2018-09-16T14:00:08.413Z,38.50
2018-09-16T14:02:35.610Z,37.63
2018-09-16T14:05:02.879Z,37.01
2018-09-16T14:07:30.121Z,36.26
2018-09-16T14:09:57.684Z,36.51
2018-09-16T14:12:24.964Z,37.74
2018-09-16T14:14:53.912Z,36.14
2018-09-16T14:17:21.175Z,38.08
2018-09-16T14:19:48.391Z,37.25
2018-09-16T14:22:16.473Z,37.27
2018-09-16T14:24:43.826Z,36.57
2018-09-16T14:27:11.099Z,39.20
2018-09-16T14:29:38.314Z,38.54
2018-09-16T14:32:06.812Z,38.55
2018-09-16T14:34:34.052Z,38.81
2018-09-16T14:37:02.894Z,38.67
2018-09-16T16:21:47.370Z,48.56
2018-09-16T16:27:04.965Z,49.70
2018-09-16T16:29:32.747Z,49.90
2018-09-16T16:32:03.221Z,52.31
2018-09-16T16:34:30.547Z,52.66
2018-09-16T16:36:57.773Z,54.46
2018-09-16T16:39:25.219Z,55.22
2018-09-16T16:41:52.498Z,55.50
2018-09-16T16:44:19.845Z,55.98
2018-09-16T16:46:47.080Z,57.61
2018-09-16T16:49:14.326Z,59.43
2018-09-16T16:51:41.548Z,59.96
2018-09-16T16:54:08.892Z,59.78
2018-09-16T16:56:36.174Z,59.64
2018-09-16T16:59:03.451Z,60.39
2018-09-16T17:01:30.682Z,61.49
2018-09-16T17:03:57.937Z,62.61
2018-09-16T17:06:25.126Z,63.34
2018-09-16T17:08:52.312Z,63.26
2018-09-16T17:11:19.655Z,63.27
2018-09-16T17:13:47.190Z,63.14
2018-09-16T17:16:14.362Z,62.83
2018-09-16T17:18:41.614Z,63.21
2018-09-16T17:21:08.820Z,63.77
2018-09-16T17:23:36.199Z,64.80
2018-09-16T17:26:03.449Z,64.72
2018-09-16T17:28:30.742Z,65.65
2018-09-16T17:30:57.973Z,66.35
2018-09-16T17:33:25.571Z,66.82
2018-09-16T17:35:52.766Z,66.60
2018-09-16T17:38:20.054Z,67.15
2018-09-16T17:40:48.660Z,67.20
2018-09-16T17:43:15.858Z,67.50
2018-09-16T17:45:53.908Z,67.25
2018-09-16T17:48:24.487Z,65.67
2018-09-16T17:50:51.723Z,65.69
2018-09-16T17:53:21.814Z,66.95
2018-09-16T17:55:49.102Z,66.16
2018-09-16T17:58:16.292Z,65.20
2018-09-16T18:00:43.604Z,65.08
2018-09-16T18:03:10.819Z,66.19
2018-09-16T18:08:40.222Z,67.07
2018-09-16T18:11:09.280Z,66.56
2018-09-16T18:13:38.476Z,68.01
2018-09-16T18:16:08.700Z,67.95
2018-09-16T18:18:38.905Z,69.14
2018-09-16T18:21:06.125Z,69.90
2018-09-16T18:23:33.465Z,69.70
2018-09-16T18:26:00.665Z,70.47
2018-09-16T18:28:31.511Z,71.02
2018-09-16T18:31:02.038Z,70.54
2018-09-16T18:33:29.405Z,70.55
2018-09-16T18:35:56.614Z,69.97
2018-09-16T18:38:23.795Z,70.27
2018-09-16T18:40:51.011Z,69.82
2018-09-16T18:43:18.197Z,70.35
2018-09-16T18:48:27.882Z,70.83
2018-09-16T18:50:55.033Z,71.78
2018-09-16T18:53:22.252Z,72.01
2018-09-16T18:55:49.805Z,72.04
2018-09-16T18:58:16.932Z,71.65
2018-09-16T19:00:44.128Z,71.61
2018-09-16T19:03:11.330Z,72.63
2018-09-16T19:05:38.457Z,72.25
2018-09-16T19:08:06.140Z,72.58
2018-09-16T19:10:33.352Z,72.23
2018-09-16T19:13:00.518Z,72.73
2018-09-16T19:15:27.798Z,73.44
2018-09-16T19:17:55.043Z,74.23
2018-09-16T19:20:22.301Z,74.29
2018-09-16T19:22:49.494Z,74.23
2018-09-16T19:25:16.741Z,73.47
2018-09-16T19:27:43.891Z,74.07
2018-09-16T19:30:11.188Z,74.49
2018-09-16T19:32:38.389Z,75.06
2018-09-16T19:35:05.588Z,75.04
2018-09-16T19:37:32.846Z,75.54
2018-09-16T19:40:00.313Z,75.25
2018-09-16T19:42:27.606Z,75.98
2018-09-16T19:44:54.762Z,75.73
2018-09-16T19:47:22.089Z,76.15
2018-09-16T19:49:49.300Z,76.92
2018-09-16T19:52:16.506Z,77.29
2018-09-16T19:54:43.744Z,77.71
2018-09-16T19:57:10.951Z,76.94
2018-09-16T19:59:38.185Z,77.80
2018-09-16T20:02:05.795Z,76.66
2018-09-16T20:04:33.015Z,76.91
2018-09-16T20:07:01.206Z,77.37
2018-09-16T20:09:28.369Z,76.78
2018-09-16T20:11:55.566Z,77.07
2018-09-16T20:14:23.237Z,76.41
2018-09-16T20:16:50.436Z,76.67
2018-09-16T20:19:17.556Z,76.84
2018-09-16T20:21:45.031Z,77.15
2018-09-16T20:24:13.546Z,77.44
2018-09-16T20:26:40.682Z,77.09
2018-09-16T20:29:07.848Z,77.18
2018-09-16T20:31:35.125Z,76.75
2018-09-16T20:34:02.674Z,76.88
2018-09-16T20:36:29.850Z,76.48
2018-09-16T20:38:57.029Z,76.26
2018-09-16T20:41:24.368Z,76.64
2018-09-16T20:43:51.542Z,77.25
2018-09-16T20:46:18.756Z,77.67
2018-09-16T20:48:45.949Z,78.09
2018-09-16T20:51:13.067Z,77.66
2018-09-16T20:53:40.233Z,78.28
2018-09-16T20:56:07.499Z,78.47
2018-09-16T20:58:34.691Z,79.99
2018-09-16T21:01:01.947Z,80.06
2018-09-16T21:03:29.150Z,79.91
2018-09-16T21:05:56.301Z,80.14
2018-09-16T21:08:23.494Z,80.22
2018-09-16T21:10:50.643Z,80.38
2018-09-16T21:13:17.944Z,80.54
2018-09-16T21:16:00.084Z,79.71
2018-09-16T21:18:36.570Z,81.10
2018-09-16T21:21:03.773Z,80.81
2018-09-16T21:23:32.657Z,81.26
2018-09-16T21:25:59.968Z,81.26
2018-09-16T21:28:27.079Z,81.22
2018-09-16T21:30:54.246Z,81.73
2018-09-16T21:33:21.456Z,81.10
2018-09-16T21:35:48.626Z,81.81
2018-09-16T21:38:15.790Z,82.44
2018-09-16T21:40:43.002Z,82.00
2018-09-16T21:43:11.200Z,82.39
2018-09-16T21:45:38.392Z,82.68
2018-09-16T21:48:05.589Z,82.81
2018-09-16T21:50:32.815Z,82.80
2018-09-16T21:52:59.964Z,83.24
2018-09-16T21:55:27.118Z,83.02
2018-09-16T21:57:54.584Z,83.15
2018-09-16T22:00:21.765Z,83.27
2018-09-16T22:02:49.008Z,83.29
2018-09-16T22:05:16.269Z,83.04
2018-09-16T22:07:43.456Z,83.63
2018-09-16T22:10:10.630Z,84.17
2018-09-16T22:12:37.817Z,84.12
2018-09-16T22:15:04.999Z,83.92
2018-09-16T22:17:32.152Z,84.20
2018-09-16T22:19:59.350Z,84.08
2018-09-16T22:22:26.497Z,84.78
2018-09-16T22:24:53.698Z,84.10
2018-09-16T22:27:20.934Z,84.54
2018-09-16T22:29:48.075Z,84.26
2018-09-16T22:32:15.229Z,84.71
2018-09-16T22:34:42.476Z,85.44
2018-09-16T22:37:09.710Z,85.21
2018-09-16T22:39:42.050Z,84.29
2018-09-16T22:42:09.256Z,84.65
2018-09-16T22:44:36.420Z,84.05
2018-09-16T22:47:03.734Z,84.35
2018-09-16T22:49:30.893Z,84.49
2018-09-16T22:51:58.094Z,84.90
2018-09-16T22:54:25.379Z,84.03
2018-09-16T22:56:52.545Z,85.08
2018-09-16T22:59:19.704Z,85.23
2018-09-16T23:01:46.931Z,85.34
2018-09-16T23:04:14.107Z,85.02
2018-09-16T23:06:41.324Z,84.76
2018-09-16T23:09:12.963Z,84.53
2018-09-16T23:11:41.643Z,84.36
2018-09-16T23:14:08.814Z,85.05
2018-09-16T23:16:36.126Z,84.31
2018-09-16T23:19:03.294Z,84.08
2018-09-16T23:21:30.462Z,85.20
2018-09-16T23:23:57.681Z,84.94
2018-09-16T23:26:24.980Z,84.64
2018-09-16T23:28:52.224Z,84.32
2018-09-16T23:31:19.509Z,84.88
2018-09-16T23:33:46.732Z,85.47
2018-09-16T23:36:14.365Z,84.80
2018-09-16T23:38:41.584Z,85.07
2018-09-16T23:41:08.759Z,85.28
2018-09-16T23:43:35.981Z,85.75
2018-09-16T23:46:03.277Z,85.42
2018-09-16T23:48:30.425Z,85.39
2018-09-16T23:50:57.596Z,86.10
2018-09-16T23:53:24.789Z,86.39
2018-09-16T23:55:51.949Z,86.30
2018-09-16T23:58:19.114Z,86.16
